Time;durP1;ratioP1;P1;durP2;ratioP2;P2;SDS_P1;SDS_P2;PMS_P1;PMS_P2;Temp;Humidity;BMP_temperature;BMP_pressure;BME280_temperature;BME280_humidity;BME280_pressure;Samples;Min_cycle;Max_cycle;Signal;HPM_P1;HPM_P2
2023/03/10 00:01:14;;;;;;;1.90;1.60;;;11.40;99.90;;;;;;5093699;28;20467;-57
2023/03/10 00:03:41;;;;;;;2.10;0.73;;;11.40;99.90;;;;;;5094504;28;20447;-56
2023/03/10 00:06:08;;;;;;;2.17;1.00;;;11.40;99.90;;;;;;5093654;28;20520;-56
2023/03/10 00:08:35;;;;;;;3.83;1.43;;;11.40;99.90;;;;;;5093628;28;20446;-56
2023/03/10 00:11:02;;;;;;;3.23;1.10;;;11.40;99.90;;;;;;5093159;28;20483;-57
2023/03/10 00:13:29;;;;;;;1.43;0.60;;;11.40;99.90;;;;;;5093735;28;20452;-57
2023/03/10 00:15:57;;;;;;;1.47;0.80;;;11.40;99.90;;;;;;5093774;28;20479;-56
2023/03/10 00:18:23;;;;;;;1.30;1.00;;;11.40;99.90;;;;;;5095075;28;20463;-56
2023/03/10 00:20:51;;;;;;;2.90;1.20;;;11.40;99.90;;;;;;5094676;28;20470;-56
2023/03/10 00:23:18;;;;;;;3.47;0.90;;;11.40;99.90;;;;;;5093816;28;20864;-56
2023/03/10 00:25:44;;;;;;;2.10;0.83;;;11.40;99.90;;;;;;5093712;28;20451;-56
2023/03/10 00:28:11;;;;;;;1.67;0.80;;;11.40;99.90;;;;;;5093520;28;20455;-56
2023/03/10 00:30:38;;;;;;;1.57;1.00;;;11.40;99.90;;;;;;5093426;28;20835;-55
2023/03/10 00:33:06;;;;;;;1.73;0.70;;;11.40;99.90;;;;;;5093394;28;20455;-55
2023/03/10 00:35:32;;;;;;;3.17;1.40;;;11.40;99.90;;;;;;5093276;28;20483;-56
2023/03/10 00:38:01;;;;;;;2.10;1.00;;;11.40;99.90;;;;;;5093399;28;20455;-56
2023/03/10 00:40:28;;;;;;;2.07;1.00;;;11.50;99.90;;;;;;5093362;28;20476;-57
2023/03/10 00:42:55;;;;;;;4.00;1.03;;;11.50;99.90;;;;;;5093330;28;20444;-55
2023/03/10 00:45:21;;;;;;;3.03;1.20;;;11.40;99.90;;;;;;5092967;28;20937;-55
2023/03/10 00:47:48;;;;;;;1.20;0.80;;;11.40;99.90;;;;;;5092875;28;20977;-55
2023/03/10 00:50:16;;;;;;;2.23;1.30;;;11.30;99.90;;;;;;5093263;28;20830;-56
2023/03/10 00:52:44;;;;;;;1.57;0.90;;;11.40;99.90;;;;;;5093249;28;20505;-56
2023/03/10 00:55:12;;;;;;;1.50;1.10;;;11.30;99.90;;;;;;5094006;28;20475;-56
2023/03/10 00:57:39;;;;;;;2.43;1.27;;;11.30;99.90;;;;;;5097221;28;20457;-55
2023/03/10 01:00:09;;;;;;;2.90;1.83;;;11.30;99.90;;;;;;5096947;28;20530;-56
2023/03/10 01:02:35;;;;;;;5.83;1.20;;;11.30;99.90;;;;;;5097355;28;20447;-56
2023/03/10 01:05:02;;;;;;;1.63;1.23;;;11.30;99.90;;;;;;5097124;28;20444;-56
2023/03/10 01:07:30;;;;;;;1.97;1.40;;;11.30;99.90;;;;;;5096797;28;20458;-56
2023/03/10 01:09:57;;;;;;;2.23;1.20;;;11.30;99.90;;;;;;5096742;28;20475;-56
2023/03/10 01:12:23;;;;;;;3.80;1.10;;;11.30;99.90;;;;;;5096943;28;20512;-56
2023/03/10 01:14:50;;;;;;;1.57;1.07;;;11.30;99.90;;;;;;5096902;28;20838;-56
2023/03/10 01:17:17;;;;;;;1.37;1.27;;;11.20;99.90;;;;;;5096772;28;20565;-56
2023/03/10 01:19:43;;;;;;;6.33;1.27;;;11.20;99.90;;;;;;5096763;28;20493;-56
2023/03/10 01:22:10;;;;;;;2.93;1.23;;;11.10;99.90;;;;;;5096724;28;20501;-56
2023/03/10 01:24:38;;;;;;;2.80;1.60;;;11.20;99.90;;;;;;5096752;28;20447;-56
2023/03/10 01:27:05;;;;;;;2.37;1.43;;;11.20;99.90;;;;;;5096402;28;20941;-56
2023/03/10 01:29:31;;;;;;;1.80;1.53;;;11.10;99.90;;;;;;5096726;28;20448;-57
2023/03/10 01:31:58;;;;;;;1.70;1.60;;;11.10;99.90;;;;;;5096604;28;20478;-56
2023/03/10 01:34:25;;;;;;;2.20;1.57;;;11.10;99.90;;;;;;5096569;28;20455;-56
2023/03/10 01:36:51;;;;;;;2.60;1.93;;;11.10;99.90;;;;;;5096350;28;20486;-56
2023/03/10 01:39:18;;;;;;;3.83;1.53;;;11.10;99.90;;;;;;5096402;28;20472;-56
2023/03/10 01:41:46;;;;;;;2.70;1.90;;;11.10;99.90;;;;;;5096428;28;20439;-56
2023/03/10 01:44:15;;;;;;;2.87;1.83;;;11.10;99.90;;;;;;5096315;28;20508;-56
2023/03/10 01:46:49;;;;;;;2.07;1.47;;;11.10;99.90;;;;;;5095998;28;20476;-57
2023/03/10 01:49:32;;;;;;;2.00;1.63;;;11.10;99.90;;;;;;5096190;28;20801;-57
2023/03/10 01:52:03;;;;;;;2.00;1.23;;;11.00;99.90;;;;;;5096264;28;20451;-56
2023/03/10 01:54:35;;;;;;;2.67;1.20;;;11.00;99.90;;;;;;5096165;28;20432;-56
2023/03/10 01:57:05;;;;;;;1.53;1.00;;;10.90;99.90;;;;;;5096086;28;20493;-56
2023/03/10 01:59:32;;;;;;;2.83;0.90;;;10.90;99.90;;;;;;5095936;28;20456;-56
2023/03/10 02:02:01;;;;;;;1.23;0.80;;;10.80;99.90;;;;;;5096021;28;20850;-56
2023/03/10 02:04:34;;;;;;;3.33;0.93;;;10.80;99.90;;;;;;5095966;28;20452;-56
2023/03/10 02:07:03;;;;;;;0.90;0.80;;;10.70;99.90;;;;;;5095677;28;20489;-56
2023/03/10 02:09:32;;;;;;;2.30;0.67;;;10.70;99.90;;;;;;5095574;28;20485;-56
2023/03/10 02:11:59;;;;;;;1.27;0.60;;;10.70;99.90;;;;;;5095804;28;20872;-56
2023/03/10 02:14:27;;;;;;;2.57;0.80;;;10.60;99.90;;;;;;5095572;28;20446;-56
2023/03/10 02:16:54;;;;;;;1.23;0.60;;;10.60;99.90;;;;;;5095690;28;20479;-56
2023/03/10 02:19:41;;;;;;;1.50;0.90;;;10.70;99.90;;;;;;5095680;28;20459;-57
2023/03/10 02:22:11;;;;;;;1.40;0.73;;;10.70;99.90;;;;;;5095713;28;20433;-57
2023/03/10 02:24:45;;;;;;;0.87;0.60;;;10.70;99.90;;;;;;5095535;28;20458;-57
2023/03/10 02:27:18;;;;;;;3.63;0.70;;;10.70;99.90;;;;;;5095554;28;20420;-57
2023/03/10 02:29:49;;;;;;;1.53;0.77;;;10.70;99.90;;;;;;5095493;28;20472;-57
2023/03/10 02:32:17;;;;;;;1.77;0.70;;;10.70;99.90;;;;;;5095455;28;20450;-57
2023/03/10 02:34:44;;;;;;;2.73;0.83;;;10.70;99.90;;;;;;5095375;28;20855;-58
2023/03/10 02:37:19;;;;;;;1.73;0.97;;;10.80;99.90;;;;;;5095032;28;20900;-57
2023/03/10 02:39:46;;;;;;;2.67;0.90;;;10.80;99.90;;;;;;5095310;28;20459;-58
2023/03/10 02:42:12;;;;;;;1.87;0.70;;;10.90;99.90;;;;;;5095264;28;20497;-57
2023/03/10 02:44:41;;;;;;;3.07;0.93;;;10.90;99.90;;;;;;5094847;28;20828;-57
2023/03/10 02:47:08;;;;;;;1.37;0.70;;;10.90;99.90;;;;;;5095108;28;20459;-57
2023/03/10 02:49:35;;;;;;;1.53;0.60;;;10.90;99.90;;;;;;5094983;28;20455;-58
2023/03/10 02:52:04;;;;;;;0.70;0.70;;;10.90;99.90;;;;;;5094714;28;20455;-57
2023/03/10 02:54:31;;;;;;;2.80;1.00;;;10.90;99.90;;;;;;5094987;28;20474;-57
2023/03/10 02:56:58;;;;;;;2.80;0.70;;;10.90;99.90;;;;;;5094911;28;20487;-57
2023/03/10 03:07:04;;;;;;;1.00;0.80;;;11.10;99.90;;;;;;5094972;28;20743;-57
2023/03/10 03:09:32;;;;;;;2.03;1.07;;;11.10;99.90;;;;;;5094184;28;20946;-57
2023/03/10 03:12:00;;;;;;;2.30;0.93;;;11.00;99.90;;;;;;5094391;28;20941;-57
2023/03/10 03:14:26;;;;;;;2.10;0.97;;;11.00;99.90;;;;;;5094661;28;20448;-57
2023/03/10 03:19:26;;;;;;;4.37;0.83;;;11.10;99.90;;;;;;5054335;28;20895;-73
2023/03/10 03:21:53;;;;;;;2.30;0.83;;;11.00;99.90;;;;;;5037808;28;20515;-73
2023/03/10 03:24:21;;;;;;;2.63;1.20;;;11.10;99.90;;;;;;5055187;28;20528;-73
2023/03/10 03:26:49;;;;;;;3.70;1.20;;;11.10;99.90;;;;;;5054829;28;20465;-73
2023/03/10 03:29:17;;;;;;;2.07;0.77;;;11.20;99.90;;;;;;5054198;28;20861;-74
2023/03/10 03:31:43;;;;;;;5.80;1.83;;;11.20;99.90;;;;;;5054714;28;20446;-73
2023/03/10 03:34:11;;;;;;;4.80;1.30;;;11.20;99.90;;;;;;5054092;28;20446;-74
2023/03/10 03:36:38;;;;;;;3.27;1.17;;;11.10;99.90;;;;;;5054506;28;20611;-74
2023/03/10 03:39:06;;;;;;;4.33;1.50;;;11.10;99.90;;;;;;5054143;28;20858;-74
2023/03/10 03:41:34;;;;;;;3.03;1.00;;;11.20;99.90;;;;;;5054824;28;20459;-74
2023/03/10 03:44:02;;;;;;;3.57;1.50;;;11.10;99.90;;;;;;5045115;28;20938;-74
2023/03/10 03:46:29;;;;;;;4.23;1.00;;;11.20;99.90;;;;;;5036446;28;20533;-73
2023/03/10 03:48:56;;;;;;;5.17;1.40;;;11.20;99.90;;;;;;5054121;28;20449;-75
2023/03/10 03:51:23;;;;;;;3.87;1.27;;;11.10;99.90;;;;;;5019958;28;20481;-74
2023/03/10 03:53:51;;;;;;;1.87;0.93;;;11.10;99.90;;;;;;5053870;28;20521;-75
2023/03/10 03:56:18;;;;;;;4.53;2.33;;;11.10;99.90;;;;;;5053555;28;20477;-75
2023/03/10 03:58:46;;;;;;;5.63;1.60;;;11.10;99.90;;;;;;5053489;28;20461;-75
2023/03/10 04:01:15;;;;;;;2.57;1.13;;;11.10;99.90;;;;;;5054032;28;20458;-74
2023/03/10 04:03:42;;;;;;;3.73;1.40;;;11.10;99.90;;;;;;5054554;28;20524;-74
2023/03/10 04:06:09;;;;;;;4.20;1.10;;;11.10;99.90;;;;;;5053480;28;20964;-75
2023/03/10 04:08:36;;;;;;;3.97;1.33;;;11.10;99.90;;;;;;5053783;28;20453;-76
2023/03/10 04:11:04;;;;;;;6.67;1.30;;;11.10;99.90;;;;;;5052992;28;20473;-75
2023/03/10 04:13:31;;;;;;;5.93;1.30;;;11.10;99.90;;;;;;5053683;28;20453;-76
2023/03/10 04:15:59;;;;;;;2.00;1.03;;;11.10;99.90;;;;;;5053197;28;20508;-75
2023/03/10 04:18:28;;;;;;;5.37;1.10;;;11.20;99.90;;;;;;5053494;28;20457;-74
2023/03/10 04:20:55;;;;;;;8.20;1.10;;;11.20;99.90;;;;;;5052635;28;20478;-75
2023/03/10 04:23:23;;;;;;;5.13;1.67;;;11.20;99.90;;;;;;5053787;28;20796;-75
2023/03/10 04:25:50;;;;;;;7.60;1.47;;;11.20;99.90;;;;;;5036761;28;20813;-75
2023/03/10 04:28:17;;;;;;;6.23;1.60;;;11.20;99.90;;;;;;5053477;28;20446;-75
2023/03/10 04:30:46;;;;;;;6.20;1.60;;;11.20;99.90;;;;;;5053156;28;20484;-75
2023/03/10 04:33:13;;;;;;;3.80;0.97;;;11.20;99.90;;;;;;5035455;28;20481;-76
2023/03/10 04:35:42;;;;;;;2.10;1.30;;;11.20;99.90;;;;;;5053279;28;20506;-76
2023/03/10 04:38:09;;;;;;;7.93;2.90;;;11.20;99.90;;;;;;5053068;28;20481;-76
2023/03/10 04:40:37;;;;;;;12.60;2.07;;;11.20;99.90;;;;;;5053425;28;20472;-76
2023/03/10 04:43:04;;;;;;;6.93;1.67;;;11.20;99.90;;;;;;5053330;28;20446;-76
2023/03/10 04:45:31;;;;;;;3.90;1.50;;;11.20;99.90;;;;;;5052953;28;20452;-76
2023/03/10 04:47:58;;;;;;;4.60;1.57;;;11.20;99.90;;;;;;5053453;28;20442;-76
2023/03/10 04:50:25;;;;;;;7.33;1.90;;;11.20;99.90;;;;;;5053317;28;20469;-76
2023/03/10 04:52:55;;;;;;;5.30;1.50;;;11.20;99.90;;;;;;5053284;28;20437;-76
2023/03/10 04:55:22;;;;;;;4.80;1.43;;;11.20;99.90;;;;;;5053403;28;20457;-76
2023/03/10 04:57:49;;;;;;;3.33;1.17;;;11.10;99.90;;;;;;5053531;28;20481;-76
2023/03/10 05:00:16;;;;;;;8.70;1.90;;;11.10;99.90;;;;;;5053663;28;20480;-77
2023/03/10 05:02:43;;;;;;;7.67;1.60;;;11.10;99.90;;;;;;5035238;28;20492;-76
2023/03/10 05:05:11;;;;;;;7.37;1.70;;;11.00;99.90;;;;;;5053406;28;20499;-77
2023/03/10 05:07:38;;;;;;;6.10;1.80;;;11.00;99.90;;;;;;5035882;28;20445;-77
2023/03/10 05:10:09;;;;;;;9.70;2.10;;;11.00;99.90;;;;;;5035415;28;21019;-76
2023/03/10 05:12:41;;;;;;;7.17;1.53;;;11.00;99.90;;;;;;5053030;28;20495;-76
2023/03/10 05:15:09;;;;;;;4.13;1.30;;;11.00;99.90;;;;;;5053402;28;20444;-76
2023/03/10 05:17:36;;;;;;;7.90;2.13;;;11.00;99.90;;;;;;5053193;28;20567;-77
2023/03/10 05:20:06;;;;;;;8.57;2.00;;;11.00;99.90;;;;;;5060390;28;20476;-77
2023/03/10 05:22:33;;;;;;;8.80;1.80;;;11.00;99.90;;;;;;5051303;28;20472;-76
2023/03/10 05:25:00;;;;;;;8.47;1.60;;;11.00;99.90;;;;;;5064413;28;20472;-76
2023/03/10 05:27:29;;;;;;;9.77;2.20;;;11.00;99.90;;;;;;5042506;28;20461;-76
2023/03/10 05:29:56;;;;;;;9.20;1.73;;;11.00;99.90;;;;;;5057291;28;20870;-76
2023/03/10 05:32:23;;;;;;;6.17;2.10;;;11.10;99.90;;;;;;5053856;28;20449;-77
2023/03/10 05:34:50;;;;;;;7.70;2.17;;;11.00;99.90;;;;;;5035483;28;20496;-76
2023/03/10 05:37:17;;;;;;;7.73;1.80;;;11.00;99.90;;;;;;5053317;28;20481;-77
2023/03/10 05:39:44;;;;;;;7.30;1.37;;;11.00;99.90;;;;;;5053360;28;20505;-77
2023/03/10 05:42:12;;;;;;;10.70;2.23;;;11.00;99.90;;;;;;5054606;28;20455;-74
2023/03/10 05:44:40;;;;;;;6.80;1.70;;;11.00;99.90;;;;;;5056676;28;20456;-74
2023/03/10 05:47:07;;;;;;;7.23;1.63;;;11.00;99.90;;;;;;5057065;28;20453;-74
2023/03/10 05:49:34;;;;;;;8.33;2.60;;;11.10;99.90;;;;;;5056815;28;20462;-75
2023/03/10 05:52:01;;;;;;;8.83;1.60;;;11.00;99.90;;;;;;5056663;28;20817;-75
2023/03/10 05:54:29;;;;;;;10.17;1.97;;;11.00;99.90;;;;;;5056599;28;20831;-76
2023/03/10 05:56:56;;;;;;;6.30;1.70;;;11.10;99.90;;;;;;5064385;28;20485;-75
2023/03/10 05:59:23;;;;;;;8.67;2.30;;;11.10;99.90;;;;;;5040290;28;20470;-76
2023/03/10 06:01:52;;;;;;;8.40;1.83;;;11.10;99.90;;;;;;5038661;28;20458;-75
2023/03/10 06:04:20;;;;;;;4.03;1.23;;;11.00;99.90;;;;;;5039074;28;20456;-75
2023/03/10 06:06:47;;;;;;;7.30;1.47;;;11.00;99.90;;;;;;5056066;28;20453;-76
2023/03/10 06:09:15;;;;;;;4.80;1.50;;;11.00;99.90;;;;;;5055676;28;21012;-76
2023/03/10 06:11:42;;;;;;;9.13;1.97;;;11.00;99.90;;;;;;5055867;28;20449;-75
2023/03/10 06:14:11;;;;;;;9.60;1.57;;;11.10;99.90;;;;;;5055840;28;20941;-76
2023/03/10 06:16:38;;;;;;;9.00;1.80;;;11.10;99.90;;;;;;5056540;28;20449;-78
2023/03/10 06:19:06;;;;;;;5.70;1.50;;;11.10;99.90;;;;;;5055757;28;20461;-77
2023/03/10 06:21:34;;;;;;;5.93;2.27;;;11.10;99.90;;;;;;5055669;28;20499;-75
2023/03/10 06:24:01;;;;;;;6.63;1.40;;;11.10;99.90;;;;;;5055557;28;20454;-77
2023/03/10 06:26:28;;;;;;;6.37;2.00;;;11.20;99.90;;;;;;5055335;28;20453;-77
2023/03/10 06:28:56;;;;;;;5.80;1.50;;;11.20;99.90;;;;;;5055670;28;20438;-76
2023/03/10 06:31:24;;;;;;;6.40;2.00;;;11.20;99.90;;;;;;5055278;28;20489;-76
2023/03/10 06:33:51;;;;;;;11.33;1.80;;;11.20;99.90;;;;;;5055364;28;20869;-76
2023/03/10 06:36:21;;;;;;;5.70;1.30;;;11.10;99.90;;;;;;5037683;28;20456;-75
2023/03/10 06:38:49;;;;;;;9.83;2.30;;;11.10;99.90;;;;;;5055518;28;20492;-74
2023/03/10 06:41:16;;;;;;;4.37;1.20;;;11.10;99.90;;;;;;5055020;28;20456;-72
2023/03/10 06:43:43;;;;;;;7.93;1.70;;;11.00;99.90;;;;;;5055093;28;20898;-70
2023/03/10 06:46:11;;;;;;;9.40;2.07;;;11.00;99.90;;;;;;5055152;28;20460;-71
2023/03/10 06:48:40;;;;;;;5.20;1.53;;;11.00;99.90;;;;;;5055143;28;20448;-72
2023/03/10 06:51:11;;;;;;;6.20;1.67;;;11.00;99.90;;;;;;5054955;28;20477;-72
2023/03/10 06:53:39;;;;;;;6.30;2.23;;;11.00;99.90;;;;;;5054836;28;20430;-72
2023/03/10 06:56:09;;;;;;;10.20;2.27;;;11.00;99.90;;;;;;5054915;28;20449;-72
2023/03/10 06:58:37;;;;;;;4.20;1.90;;;11.00;99.90;;;;;;5054502;28;20861;-72
2023/03/10 07:01:06;;;;;;;5.57;1.50;;;11.00;99.90;;;;;;5054819;28;20473;-72
2023/03/10 07:03:33;;;;;;;5.87;1.93;;;11.00;99.90;;;;;;5055996;28;20522;-72
2023/03/10 07:06:00;;;;;;;7.33;2.00;;;11.10;99.90;;;;;;5057804;28;20449;-74
2023/03/10 07:08:29;;;;;;;10.97;1.57;;;11.10;99.90;;;;;;5054330;28;20495;-74
2023/03/10 07:10:57;;;;;;;4.13;1.30;;;11.20;99.90;;;;;;5055073;28;20473;-69
2023/03/10 07:13:24;;;;;;;4.10;2.00;;;11.20;99.90;;;;;;5054560;28;20449;-69
2023/03/10 07:15:51;;;;;;;8.43;1.70;;;11.20;99.90;;;;;;5054935;28;20456;-70
2023/03/10 07:18:18;;;;;;;6.93;1.33;;;11.20;99.90;;;;;;5054141;28;21005;-70
2023/03/10 07:20:46;;;;;;;4.00;1.10;;;11.30;99.90;;;;;;5036412;28;20470;-70
2023/03/10 07:23:14;;;;;;;5.30;1.90;;;11.40;99.90;;;;;;5054334;28;20450;-72
2023/03/10 07:25:41;;;;;;;3.90;1.60;;;11.50;99.90;;;;;;5054542;28;20450;-73
2023/03/10 07:28:10;;;;;;;3.30;1.73;;;11.50;99.90;;;;;;5036660;28;20457;-73
2023/03/10 07:30:38;;;;;;;9.23;1.80;;;11.60;99.90;;;;;;5054187;28;20470;-74
2023/03/10 07:33:05;;;;;;;7.43;1.57;;;11.60;99.90;;;;;;5057934;28;20506;-73
2023/03/10 07:35:33;;;;;;;5.57;1.30;;;11.70;99.90;;;;;;5068283;28;20454;-74
2023/03/10 07:38:00;;;;;;;7.00;1.60;;;11.70;99.90;;;;;;5061688;28;20492;-75
2023/03/10 07:40:26;;;;;;;3.77;1.30;;;11.70;99.90;;;;;;5058362;28;20466;-75
2023/03/10 07:42:54;;;;;;;4.47;1.47;;;11.80;99.90;;;;;;5056781;28;20438;-75
2023/03/10 07:45:24;;;;;;;3.27;1.40;;;11.90;99.90;;;;;;5054638;28;20499;-75
2023/03/10 07:47:51;;;;;;;7.07;2.30;;;12.00;99.90;;;;;;5054335;28;20468;-76
2023/03/10 07:50:20;;;;;;;4.70;1.33;;;12.10;99.90;;;;;;5055064;28;20478;-76
2023/03/10 07:52:47;;;;;;;7.23;2.37;;;12.20;99.90;;;;;;5054967;28;20832;-76
2023/03/10 07:55:15;;;;;;;9.23;2.00;;;12.30;99.90;;;;;;5054081;28;20446;-74
2023/03/10 07:57:42;;;;;;;3.17;1.30;;;12.20;99.90;;;;;;5036824;28;20517;-74
2023/03/10 08:00:10;;;;;;;8.47;2.10;;;12.20;99.90;;;;;;5054163;28;20474;-74
2023/03/10 08:02:40;;;;;;;2.70;1.20;;;12.20;99.90;;;;;;5054331;28;20445;-75
2023/03/10 08:05:08;;;;;;;7.00;1.37;;;12.20;99.90;;;;;;5053647;28;20857;-74
2023/03/10 08:07:35;;;;;;;4.40;1.87;;;12.20;99.90;;;;;;5054155;28;20450;-74
2023/03/10 08:10:02;;;;;;;6.83;2.40;;;12.30;99.90;;;;;;5059068;28;20552;-74
2023/03/10 08:12:29;;;;;;;9.23;2.30;;;12.40;99.90;;;;;;5053697;28;20446;-74
2023/03/10 08:14:56;;;;;;;5.50;1.60;;;12.40;99.90;;;;;;5054011;28;20449;-75
2023/03/10 08:17:29;;;;;;;7.43;1.73;;;12.50;99.90;;;;;;5053416;28;20461;-75
2023/03/10 08:20:00;;;;;;;5.20;1.80;;;12.50;99.90;;;;;;5053232;28;20488;-76
2023/03/10 08:22:29;;;;;;;4.40;1.53;;;12.60;99.90;;;;;;5053687;28;20437;-75
2023/03/10 08:24:58;;;;;;;6.50;1.57;;;12.70;99.90;;;;;;5053671;28;20446;-76
2023/03/10 08:27:25;;;;;;;8.40;2.53;;;12.70;99.90;;;;;;5053656;28;21056;-76
2023/03/10 08:29:52;;;;;;;8.20;1.67;;;12.70;99.90;;;;;;5054079;28;20470;-76
2023/03/10 08:32:19;;;;;;;7.97;2.73;;;12.70;99.90;;;;;;5053183;28;20853;-76
2023/03/10 08:34:47;;;;;;;6.27;2.30;;;12.70;99.90;;;;;;5054217;28;20480;-76
2023/03/10 08:37:16;;;;;;;7.47;2.13;;;12.80;99.90;;;;;;5053379;28;20452;-76
2023/03/10 08:39:43;;;;;;;10.30;2.37;;;12.80;99.90;;;;;;5053522;28;20466;-76
2023/03/10 08:42:11;;;;;;;9.27;2.20;;;12.90;99.90;;;;;;5053839;28;20953;-75
2023/03/10 08:44:40;;;;;;;8.50;2.40;;;13.00;99.90;;;;;;5053651;28;20458;-77
2023/03/10 08:47:07;;;;;;;6.97;1.77;;;13.10;99.90;;;;;;5053323;28;20464;-76
2023/03/10 08:49:34;;;;;;;12.53;2.87;;;13.30;99.90;;;;;;5053152;28;20465;-77
2023/03/10 08:52:01;;;;;;;7.50;2.23;;;13.20;99.90;;;;;;5053240;28;20488;-76
2023/03/10 08:54:29;;;;;;;11.70;2.50;;;13.30;99.90;;;;;;5053449;28;20503;-77
2023/03/10 08:56:56;;;;;;;17.80;2.87;;;13.30;99.90;;;;;;5019470;28;20452;-77
2023/03/10 08:59:25;;;;;;;10.30;2.83;;;13.30;99.90;;;;;;5052701;28;21005;-77
2023/03/10 09:01:52;;;;;;;8.87;2.37;;;13.30;99.90;;;;;;5035759;28;20450;-77
2023/03/10 09:04:22;;;;;;;11.23;2.80;;;13.40;99.90;;;;;;5052865;28;20958;-76
2023/03/10 09:06:49;;;;;;;9.63;2.30;;;13.50;99.90;;;;;;5053186;28;20456;-77
2023/03/10 09:09:16;;;;;;;11.37;2.23;;;13.60;99.90;;;;;;5036113;28;20477;-76
2023/03/10 09:11:46;;;;;;;6.87;1.80;;;13.60;99.90;;;;;;5035686;28;20453;-73
2023/03/10 09:14:16;;;;;;;4.37;1.43;;;13.60;99.90;;;;;;5035201;28;20449;-76
2023/03/10 09:16:43;;;;;;;9.27;2.27;;;13.60;99.90;;;;;;5037396;28;20488;-76
2023/03/10 09:19:10;;;;;;;8.90;2.00;;;13.60;99.90;;;;;;5056244;28;20989;-76
2023/03/10 09:21:37;;;;;;;10.60;1.90;;;13.60;99.90;;;;;;5056632;28;20467;-76
2023/03/10 09:24:04;;;;;;;6.13;1.93;;;13.60;99.90;;;;;;5056812;28;20995;-75
2023/03/10 09:26:33;;;;;;;9.77;1.70;;;13.70;99.70;;;;;;5057198;28;20457;-76
2023/03/10 09:29:02;;;;;;;8.83;2.27;;;13.60;99.00;;;;;;5056138;28;20532;-77
2023/03/10 09:31:32;;;;;;;7.47;1.60;;;13.60;99.90;;;;;;5056821;28;20461;-76
2023/03/10 09:34:00;;;;;;;5.10;2.13;;;13.70;99.90;;;;;;5056562;28;20471;-76
2023/03/10 09:36:28;;;;;;;5.97;1.77;;;13.80;99.90;;;;;;5039058;28;20859;-75
2023/03/10 09:38:56;;;;;;;7.50;2.53;;;13.90;99.10;;;;;;5038538;28;20550;-76
2023/03/10 09:41:47;;;;;;;7.30;2.03;;;14.00;99.30;;;;;;5057955;28;20544;-75
2023/03/10 09:44:25;;;;;;;7.90;2.07;;;14.20;99.00;;;;;;5044999;28;20445;-76
2023/03/10 09:47:06;;;;;;;8.23;2.53;;;14.20;98.00;;;;;;5057784;28;20406;-76
2023/03/10 09:49:36;;;;;;;7.07;2.40;;;14.20;97.50;;;;;;5065424;28;20449;-75
2023/03/10 09:52:18;;;;;;;5.87;1.43;;;14.30;98.00;;;;;;5063608;28;20438;-75
2023/03/10 09:54:55;;;;;;;7.40;1.87;;;14.40;97.70;;;;;;5058882;28;20433;-76
2023/03/10 09:57:24;;;;;;;4.77;1.80;;;14.80;98.20;;;;;;5057024;28;20433;-76
2023/03/10 09:59:58;;;;;;;10.47;1.80;;;15.10;97.10;;;;;;5039632;28;20493;-76
2023/03/10 10:02:30;;;;;;;11.60;2.37;;;15.30;96.00;;;;;;5056722;28;20906;-76
2023/03/10 10:05:01;;;;;;;6.27;2.10;;;15.40;94.70;;;;;;5057855;28;20446;-77
2023/03/10 10:07:40;;;;;;;8.17;1.63;;;15.40;94.20;;;;;;5057286;28;20430;-76
2023/03/10 10:10:15;;;;;;;12.13;2.10;;;15.50;93.60;;;;;;5038423;28;20840;-76
2023/03/10 10:12:43;;;;;;;4.43;1.27;;;15.40;93.70;;;;;;5056422;28;20457;-76
2023/03/10 10:15:17;;;;;;;5.90;1.40;;;15.30;94.20;;;;;;5056415;28;20458;-76
2023/03/10 10:17:57;;;;;;;5.77;1.27;;;15.10;93.80;;;;;;5056628;28;20504;-76
2023/03/10 10:20:29;;;;;;;3.60;1.23;;;14.70;93.10;;;;;;5045339;28;20461;-76
2023/03/10 10:22:56;;;;;;;4.30;1.23;;;14.70;94.10;;;;;;5056081;28;20432;-76
2023/03/10 10:25:25;;;;;;;6.53;1.60;;;14.80;95.20;;;;;;5055525;28;20450;-77
2023/03/10 10:27:55;;;;;;;3.53;1.37;;;15.00;95.10;;;;;;5055007;28;20461;-77
2023/03/10 10:30:30;;;;;;;3.80;0.93;;;15.00;93.30;;;;;;5055735;28;20465;-77
2023/03/10 10:33:00;;;;;;;6.17;1.30;;;14.80;93.30;;;;;;5055191;28;20812;-76
2023/03/10 10:35:28;;;;;;;5.70;1.50;;;14.70;93.60;;;;;;5038553;28;20896;-73
2023/03/10 10:37:59;;;;;;;7.43;1.20;;;14.80;94.60;;;;;;5055635;28;20449;-74
2023/03/10 10:40:32;;;;;;;4.17;1.03;;;14.80;94.90;;;;;;5055363;28;20474;-75
2023/03/10 10:43:04;;;;;;;3.30;1.33;;;14.50;93.40;;;;;;5054895;28;20449;-75
2023/03/10 10:45:36;;;;;;;6.77;1.20;;;14.10;93.80;;;;;;5055401;28;20434;-74
2023/03/10 10:48:04;;;;;;;1.47;0.87;;;13.80;94.20;;;;;;5054931;28;20469;-75
2023/03/10 10:50:32;;;;;;;4.70;1.37;;;13.70;95.40;;;;;;5037813;28;20473;-75
2023/03/10 10:53:18;;;;;;;3.27;1.00;;;13.70;97.10;;;;;;5055189;28;20484;-74
2023/03/10 10:55:46;;;;;;;4.90;1.03;;;13.80;98.00;;;;;;5055070;28;20421;-75
2023/03/10 10:58:28;;;;;;;2.40;0.90;;;13.80;98.40;;;;;;5054729;28;20446;-75
2023/03/10 11:00:58;;;;;;;2.30;1.13;;;13.80;98.50;;;;;;5054908;28;20474;-75
2023/03/10 11:03:28;;;;;;;2.40;0.70;;;13.70;97.90;;;;;;5055604;28;20453;-75
2023/03/10 11:05:56;;;;;;;4.33;1.00;;;13.60;98.00;;;;;;5037639;28;20442;-76
2023/03/10 11:08:33;;;;;;;1.50;0.73;;;13.50;97.90;;;;;;5022569;28;20444;-75
2023/03/10 11:11:05;;;;;;;3.40;1.00;;;13.50;98.30;;;;;;5066246;28;20484;-74
2023/03/10 11:13:38;;;;;;;2.83;0.80;;;13.30;98.90;;;;;;5062779;28;20437;-73
2023/03/10 11:16:15;;;;;;;5.57;1.10;;;13.20;99.50;;;;;;5054930;28;20957;-72
2023/03/10 11:18:50;;;;;;;2.90;1.00;;;13.20;99.90;;;;;;5054347;28;20492;-71
2023/03/10 11:21:22;;;;;;;3.27;0.93;;;13.10;99.90;;;;;;5054175;28;20914;-72
2023/03/10 11:23:58;;;;;;;3.07;1.00;;;13.10;99.90;;;;;;5054569;28;20477;-71
2023/03/10 11:26:36;;;;;;;5.57;1.10;;;13.10;99.90;;;;;;5036927;28;20445;-71
2023/03/10 11:29:14;;;;;;;2.97;1.03;;;12.90;99.90;;;;;;5054127;28;20426;-70
2023/03/10 11:31:51;;;;;;;5.70;1.07;;;12.90;99.90;;;;;;5054351;28;20444;-69
2023/03/10 11:34:24;;;;;;;2.17;0.60;;;12.80;99.90;;;;;;5054002;28;20872;-69
2023/03/10 11:37:02;;;;;;;2.30;0.90;;;12.70;99.90;;;;;;5053790;28;20911;-67
2023/03/10 11:39:43;;;;;;;7.30;1.10;;;12.60;99.90;;;;;;5053324;28;20493;-68
2023/03/10 11:42:20;;;;;;;4.37;2.03;;;12.60;99.90;;;;;;5054013;28;20457;-69
2023/03/10 11:44:58;;;;;;;1.97;0.60;;;12.50;99.90;;;;;;5054050;28;20436;-68
2023/03/10 11:47:41;;;;;;;3.20;1.03;;;12.60;99.90;;;;;;5036313;28;20966;-69
2023/03/10 11:50:19;;;;;;;3.53;0.83;;;12.60;99.90;;;;;;5053226;28;20469;-68
2023/03/10 11:52:47;;;;;;;1.07;0.57;;;12.60;99.90;;;;;;5054964;28;20438;-68
2023/03/10 11:55:20;;;;;;;2.03;0.80;;;12.50;99.90;;;;;;5059411;28;20449;-68
2023/03/10 11:57:53;;;;;;;2.90;0.90;;;12.60;99.90;;;;;;5060692;28;20441;-69
2023/03/10 12:00:24;;;;;;;1.83;0.50;;;12.60;99.90;;;;;;5058404;28;20512;-71
2023/03/10 12:03:06;;;;;;;4.63;0.93;;;12.60;99.90;;;;;;5055727;28;20433;-70
2023/03/10 12:05:42;;;;;;;1.17;0.50;;;12.60;99.90;;;;;;5054751;28;20923;-69
2023/03/10 12:08:11;;;;;;;1.43;0.53;;;12.60;99.90;;;;;;5054708;28;20433;-70
2023/03/10 12:10:41;;;;;;;0.73;0.70;;;12.60;99.90;;;;;;5054835;28;20469;-71
2023/03/10 12:13:19;;;;;;;1.43;0.83;;;12.70;99.90;;;;;;5055338;28;20441;-70
2023/03/10 12:15:47;;;;;;;3.37;0.50;;;12.70;99.90;;;;;;5053783;28;20465;-71
2023/03/10 12:18:16;;;;;;;1.13;0.60;;;12.70;99.90;;;;;;5053833;28;20465;-71
2023/03/10 12:20:43;;;;;;;0.90;0.60;;;12.70;99.90;;;;;;5053979;28;20493;-71
2023/03/10 12:23:29;;;;;;;2.87;0.80;;;12.80;99.90;;;;;;5053795;28;20461;-72
2023/03/10 12:25:56;;;;;;;1.73;0.77;;;12.80;99.90;;;;;;5035454;28;20449;-70
2023/03/10 12:28:26;;;;;;;1.47;1.03;;;12.80;99.90;;;;;;5055033;28;20981;-71
2023/03/10 12:30:56;;;;;;;1.83;0.70;;;12.90;99.90;;;;;;5053360;28;20982;-70
2023/03/10 12:33:45;;;;;;;0.63;0.60;;;12.90;99.90;;;;;;5035733;28;20478;-70
2023/03/10 12:36:15;;;;;;;1.70;0.47;;;12.90;99.90;;;;;;5053431;28;20450;-70
2023/03/10 12:38:48;;;;;;;1.83;0.83;;;12.90;99.90;;;;;;5053452;28;20460;-70
2023/03/10 12:41:43;;;;;;;2.00;0.73;;;12.90;99.90;;;;;;5035735;28;20442;-70
2023/03/10 12:44:50;;;;;;;1.03;0.97;;;12.90;99.90;;;;;;5035978;28;20430;-69
2023/03/10 12:47:36;;;;;;;1.80;0.83;;;12.80;99.90;;;;;;5047037;28;20457;-71
2023/03/10 12:50:18;;;;;;;1.10;0.80;;;12.70;99.90;;;;;;5033387;28;20462;-71
2023/03/10 12:52:53;;;;;;;0.70;0.40;;;12.60;99.90;;;;;;5036982;28;20473;-71
2023/03/10 12:55:23;;;;;;;2.17;0.60;;;12.60;99.90;;;;;;5036995;28;20437;-71
2023/03/10 12:58:04;;;;;;;1.23;1.00;;;12.60;99.90;;;;;;5040371;28;20481;-70
2023/03/10 13:00:40;;;;;;;0.87;0.57;;;12.50;99.90;;;;;;5056922;28;20488;-71
2023/03/10 13:03:18;;;;;;;2.63;0.73;;;12.50;99.90;;;;;;5057327;28;20441;-71
2023/03/10 13:05:59;;;;;;;1.80;0.50;;;12.40;99.90;;;;;;5053037;28;20499;-70
2023/03/10 13:08:34;;;;;;;0.77;0.50;;;12.30;99.90;;;;;;5056469;28;20822;-71